Time;durP1;ratioP1;P1;durP2;ratioP2;P2;SDS_P1;SDS_P2;PMS_P1;PMS_P2;Temp;Humidity;BMP_temperature;BMP_pressure;BME280_temperature;BME280_humidity;BME280_pressure;Samples;Min_cycle;Max_cycle;Signal;HPM_P1;HPM_P2
2021/01/27 00:00:50;;;;;;;36.43;12.37;;;;;;;0.84;100.00;100860.31;5013616;28;20018;-67
2021/01/27 00:03:16;;;;;;;30.77;11.40;;;;;;;0.78;100.00;100860.09;5013412;28;20807;-67
2021/01/27 00:05:45;;;;;;;35.10;12.07;;;;;;;0.75;100.00;100858.25;5018552;28;20364;-68
2021/01/27 00:08:11;;;;;;;36.03;12.70;;;;;;;0.73;100.00;100856.44;5019252;28;20021;-67
2021/01/27 00:10:37;;;;;;;35.20;11.80;;;;;;;0.63;100.00;100855.16;5020258;28;20636;-67
2021/01/27 00:13:05;;;;;;;35.37;11.40;;;;;;;0.60;100.00;100855.00;5024464;28;20508;-70
2021/01/27 00:15:34;;;;;;;38.43;12.23;;;;;;;0.47;100.00;100857.84;5015781;28;20644;-67
2021/01/27 00:18:00;;;;;;;40.10;12.03;;;;;;;0.42;100.00;100855.06;5015966;28;20656;-67
2021/01/27 00:20:27;;;;;;;35.97;12.47;;;;;;;0.37;100.00;100846.28;5014921;28;20312;-67
2021/01/27 00:22:53;;;;;;;36.30;12.20;;;;;;;0.28;100.00;100840.72;5017081;28;20686;-67
2021/01/27 00:25:23;;;;;;;35.40;11.40;;;;;;;0.33;100.00;100846.94;5017167;28;20292;-67
2021/01/27 00:27:50;;;;;;;33.23;12.60;;;;;;;0.40;100.00;100838.69;5018968;28;20288;-67
2021/01/27 00:30:20;;;;;;;33.80;13.23;;;;;;;0.38;100.00;100837.75;5027129;28;20257;-67
2021/01/27 00:32:46;;;;;;;38.47;13.97;;;;;;;0.16;100.00;100840.19;5025736;28;20311;-67
2021/01/27 00:35:13;;;;;;;37.10;12.00;;;;;;;-0.01;100.00;100827.41;5011166;28;20273;-67
2021/01/27 00:37:39;;;;;;;40.83;12.77;;;;;;;0.01;100.00;100824.06;5013331;28;20351;-67
2021/01/27 00:40:06;;;;;;;34.03;12.17;;;;;;;0.12;100.00;100828.88;5021451;28;20952;-67
2021/01/27 00:42:31;;;;;;;41.50;12.73;;;;;;;0.20;100.00;100835.22;5013270;28;20044;-67
2021/01/27 00:44:57;;;;;;;40.60;12.63;;;;;;;0.31;100.00;100834.84;5027963;28;20276;-67
2021/01/27 00:47:22;;;;;;;39.93;12.93;;;;;;;0.32;100.00;100827.19;5026249;28;20636;-67
2021/01/27 00:49:48;;;;;;;39.40;14.40;;;;;;;0.27;100.00;100828.69;5024661;28;20035;-67
2021/01/27 00:52:13;;;;;;;49.83;13.33;;;;;;;0.18;100.00;100830.84;5025055;28;20060;-66
2021/01/27 00:54:38;;;;;;;41.37;13.13;;;;;;;0.15;100.00;100828.13;5023564;28;20049;-67
2021/01/27 00:57:04;;;;;;;42.90;13.67;;;;;;;0.11;100.00;100836.50;5028933;28;20045;-67
2021/01/27 00:59:30;;;;;;;51.03;14.40;;;;;;;0.13;100.00;100824.63;5025299;28;20088;-67
2021/01/27 01:01:55;;;;;;;48.57;13.97;;;;;;;0.18;100.00;100823.13;5022055;28;20047;-67
2021/01/27 01:04:20;;;;;;;55.30;15.43;;;;;;;0.19;100.00;100819.75;5029822;28;20031;-67
2021/01/27 01:06:46;;;;;;;45.63;14.33;;;;;;;0.17;100.00;100817.09;5027243;28;20037;-66
2021/01/27 01:09:11;;;;;;;50.97;14.43;;;;;;;0.14;100.00;100813.53;5028585;28;20033;-67
2021/01/27 01:11:37;;;;;;;63.60;14.87;;;;;;;0.16;100.00;100817.03;5026001;28;20167;-67
2021/01/27 01:14:03;;;;;;;54.90;15.77;;;;;;;0.16;100.00;100814.47;5016769;28;20025;-66
2021/01/27 01:16:28;;;;;;;53.07;15.00;;;;;;;0.17;100.00;100811.09;5016650;28;20288;-67
2021/01/27 01:18:54;;;;;;;53.60;14.77;;;;;;;0.21;100.00;100823.25;5027038;28;20055;-67
2021/01/27 01:21:19;;;;;;;68.30;16.63;;;;;;;0.25;100.00;100820.91;5021660;28;20103;-68
2021/01/27 01:23:45;;;;;;;54.67;15.37;;;;;;;0.35;100.00;100821.28;5016494;28;20031;-67
2021/01/27 01:26:10;;;;;;;51.13;14.57;;;;;;;0.41;100.00;100822.47;5015085;28;20520;-67
2021/01/27 01:28:35;;;;;;;49.70;14.57;;;;;;;0.45;100.00;100834.63;5029103;28;20022;-68
2021/01/27 01:31:01;;;;;;;56.43;15.23;;;;;;;0.53;100.00;100827.25;5030525;28;20025;-67
2021/01/27 01:33:30;;;;;;;53.80;16.37;;;;;;;0.56;100.00;100823.13;5029887;28;20025;-67
2021/01/27 01:35:56;;;;;;;58.50;15.77;;;;;;;0.58;100.00;100821.47;5029502;28;20032;-68
2021/01/27 01:38:22;;;;;;;55.40;15.93;;;;;;;0.58;100.00;100816.34;5025526;28;20280;-67
2021/01/27 01:40:50;;;;;;;56.30;16.07;;;;;;;0.64;100.00;100820.00;5029441;28;20032;-67
2021/01/27 01:43:21;;;;;;;53.17;16.70;;;;;;;0.67;100.00;100821.00;5020391;28;20286;-68
2021/01/27 01:45:52;;;;;;;50.90;16.30;;;;;;;0.65;100.00;100808.91;5017815;28;20294;-68
2021/01/27 01:48:21;;;;;;;48.67;14.95;;;;;;;0.64;100.00;100810.59;5026776;28;20284;-69
2021/01/27 01:50:51;;;;;;;44.53;14.70;;;;;;;0.64;100.00;100809.72;5027599;28;20404;-67
2021/01/27 01:53:18;;;;;;;55.80;15.73;;;;;;;0.65;100.00;100807.22;5018212;28;20288;-68
2021/01/27 01:55:43;;;;;;;46.03;15.00;;;;;;;0.65;100.00;100806.31;5023429;28;20271;-67
2021/01/27 01:58:10;;;;;;;53.83;15.57;;;;;;;0.74;100.00;100806.72;5021762;28;20639;-68
2021/01/27 02:00:38;;;;;;;56.70;17.27;;;;;;;0.85;100.00;100805.50;5020148;28;20025;-67
2021/01/27 02:03:04;;;;;;;49.43;16.10;;;;;;;0.93;100.00;100808.38;5015990;28;20326;-67
2021/01/27 02:05:29;;;;;;;55.67;16.73;;;;;;;0.98;100.00;100801.72;5014873;28;20870;-67
2021/01/27 02:07:57;;;;;;;42.13;15.57;;;;;;;1.07;100.00;100795.25;5023629;28;20485;-67
2021/01/27 02:10:23;;;;;;;53.20;16.87;;;;;;;1.08;100.00;100799.56;5014633;28;20024;-67
2021/01/27 02:13:19;;;;;;;48.10;15.27;;;;;;;1.18;100.00;100793.97;5016532;28;20910;-67
2021/01/27 02:16:06;;;;;;;44.83;16.13;;;;;;;1.20;100.00;100782.88;5019961;28;20284;-66
2021/01/27 02:18:55;;;;;;;45.00;16.70;;;;;;;1.20;100.00;100783.75;5019782;28;20333;-66
2021/01/27 02:21:42;;;;;;;46.50;14.57;;;;;;;1.29;100.00;100778.09;5020903;28;21012;-69
2021/01/27 02:24:29;;;;;;;39.33;13.80;;;;;;;1.27;100.00;100774.56;5027460;28;20367;-67
2021/01/27 02:27:06;;;;;;;35.03;13.57;;;;;;;1.31;100.00;100771.28;5020080;28;20284;-67
2021/01/27 02:30:01;;;;;;;40.43;14.43;;;;;;;1.27;100.00;100775.47;5023090;28;20421;-66
2021/01/27 02:32:48;;;;;;;26.53;11.37;;;;;;;1.24;100.00;100774.47;5015671;28;20787;-67
2021/01/27 02:35:28;;;;;;;32.73;12.60;;;;;;;1.24;100.00;100769.31;5023383;28;20354;-67
2021/01/27 02:38:12;;;;;;;39.37;13.37;;;;;;;1.22;100.00;100773.53;5025032;28;20284;-67
2021/01/27 02:40:51;;;;;;;40.87;12.73;;;;;;;1.25;100.00;100765.91;5024390;28;20302;-68
2021/01/27 02:43:31;;;;;;;32.03;10.80;;;;;;;1.27;100.00;100769.44;5018302;28;20347;-67
2021/01/27 02:46:17;;;;;;;32.30;12.13;;;;;;;1.29;100.00;100757.47;5028309;28;20276;-67
2021/01/27 02:48:59;;;;;;;32.03;12.07;;;;;;;1.36;100.00;100754.34;5011481;28;20354;-67
2021/01/27 02:51:42;;;;;;;31.27;10.80;;;;;;;1.35;100.00;100756.03;5020792;28;20279;-67
2021/01/27 02:54:14;;;;;;;;;;;;;;;1.37;100.00;100751.81;5017216;28;20030;-67
2021/01/27 02:56:42;;;;;;;;;;;;;;;1.33;100.00;100751.63;5023184;28;19999;-67
2021/01/27 02:59:30;;;;;;;;;;;;;;;1.32;100.00;100752.44;5024728;28;19924;-67
2021/01/27 03:02:05;;;;;;;;;;;;;;;1.34;100.00;100743.97;5025876;28;19921;-67
2021/01/27 03:04:34;;;;;;;;;;;;;;;1.33;100.00;100743.91;5018217;28;20394;-67
2021/01/27 03:07:01;;;;;;;;;;;;;;;1.33;100.00;100739.66;5018743;28;19917;-67
2021/01/27 03:09:39;;;;;;;;;;;;;;;1.35;100.00;100748.31;5023538;28;19920;-67
2021/01/27 03:12:05;;;;;;;;;;;;;;;1.31;100.00;100745.53;5027325;28;20387;-67
2021/01/27 03:14:30;;;;;;;;;;;;;;;1.33;100.00;100744.81;5012839;28;19922;-66
2021/01/27 03:17:01;;;;;;;;;;;;;;;1.34;100.00;100740.53;5023773;28;19913;-66
2021/01/27 03:19:35;;;;;;;;;;;;;;;1.38;100.00;100734.66;5023176;28;19952;-67
2021/01/27 03:22:03;;;;;;;;;;;;;;;1.44;100.00;100734.88;5026280;28;19913;-68
2021/01/27 03:24:29;;;;;;;;;;;;;;;1.43;100.00;100730.56;5025846;28;19921;-67
2021/01/27 03:26:58;;;;;;;;;;;;;;;1.40;100.00;100725.28;5020062;28;19921;-67
2021/01/27 03:29:28;;;;;;;;;;;;;;;1.37;100.00;100735.50;5021431;28;20367;-67
2021/01/27 03:31:55;;;;;;;;;;;;;;;1.36;100.00;100728.59;5017472;28;19955;-68
2021/01/27 03:34:29;;;;;;;;;;;;;;;1.28;100.00;100735.13;5017155;28;19914;-68
2021/01/27 03:36:59;;;;;;;;;;;;;;;1.31;100.00;100737.81;5021346;28;20382;-67
2021/01/27 03:39:27;;;;;;;;;;;;;;;1.26;100.00;100731.63;5013557;28;20308;-67
2021/01/27 03:41:59;;;;;;;;;;;;;;;1.26;100.00;100729.03;5018542;28;19924;-68
2021/01/27 03:44:38;;;;;;;;;;;;;;;1.26;100.00;100723.88;5027661;28;19917;-67
2021/01/27 03:47:09;;;;;;;;;;;;;;;1.27;100.00;100710.19;5024919;28;20392;-67
2021/01/27 03:49:57;;;;;;;;;;;;;;;1.23;100.00;100705.75;5022301;28;20304;-67
2021/01/27 03:52:25;;;;;;;;;;;;;;;1.17;100.00;100707.25;5025951;28;19925;-68
2021/01/27 03:54:57;;;;;;;;;;;;;;;1.15;100.00;100705.44;5022531;28;19913;-67
2021/01/27 03:57:25;;;;;;;;;;;;;;;1.12;100.00;100698.47;5024791;28;19913;-68
2021/01/27 03:59:51;;;;;;;;;;;;;;;1.03;100.00;100697.22;5015494;28;19963;-67
2021/01/27 04:02:18;;;;;;;;;;;;;;;1.02;100.00;100701.50;5013961;28;19921;-67
2021/01/27 04:04:44;;;;;;;;;;;;;;;0.98;100.00;100691.91;5021516;28;20027;-67
2021/01/27 04:07:09;;;;;;;;;;;;;;;0.97;100.00;100689.25;5018145;28;20040;-67
2021/01/27 04:09:34;;;;;;;;;;;;;;;0.94;100.00;100687.44;5023232;28;19936;-67
2021/01/27 04:12:00;;;;;;;;;;;;;;;0.93;100.00;100693.41;5013610;28;20400;-67
2021/01/27 04:14:25;;;;;;;;;;;;;;;0.98;100.00;100689.34;5012584;28;20018;-67
2021/01/27 04:16:50;;;;;;;;;;;;;;;0.94;100.00;100695.16;5015545;28;19920;-67
2021/01/27 04:19:15;;;;;;;;;;;;;;;0.90;100.00;100694.97;5024629;28;20071;-65
2021/01/27 04:21:42;;;;;;;;;;;;;;;0.91;100.00;100695.03;5022830;28;19921;-67
2021/01/27 04:24:07;;;;;;;;;;;;;;;0.84;100.00;100693.03;5017709;28;19913;-67
2021/01/27 04:26:34;;;;;;;;;;;;;;;0.75;100.00;100695.25;5022682;28;19975;-66
2021/01/27 04:28:59;;;;;;;;;;;;;;;0.70;100.00;100691.59;5027879;28;20376;-67
2021/01/27 04:31:24;;;;;;;;;;;;;;;0.73;100.00;100691.75;5020088;28;19917;-67
2021/01/27 04:33:49;;;;;;;;;;;;;;;0.78;100.00;100685.06;5026692;28;20316;-67
2021/01/27 04:36:15;;;;;;;;;;;;;;;0.78;100.00;100682.50;5025159;28;19920;-67
2021/01/27 04:38:40;;;;;;;;;;;;;;;0.87;100.00;100685.47;5016733;28;20381;-67
2021/01/27 04:41:06;;;;;;;;;;;;;;;0.79;100.00;100689.41;5028929;28;19917;-67
2021/01/27 04:43:42;;;;;;;;;;;;;;;0.75;100.00;100679.81;5021781;28;19913;-66
2021/01/27 04:46:14;;;;;;;;;;;;;;;0.73;100.00;100676.31;5031593;28;19971;-67
2021/01/27 04:48:59;;;;;;;;;;;;;;;0.68;100.00;100676.09;5029235;28;19959;-66
2021/01/27 04:51:29;;;;;;;;;;;;;;;0.65;100.00;100669.97;5024400;28;19940;-66
2021/01/27 04:54:09;;;;;;;;;;;;;;;0.56;100.00;100673.91;5029732;28;19921;-66
2021/01/27 04:56:48;;;;;;;;;;;;;;;0.56;100.00;100673.91;5020508;28;20007;-67
2021/01/27 04:59:18;;;;;;;;;;;;;;;0.60;100.00;100669.75;5020760;28;19925;-68
2021/01/27 05:01:46;;;;;;;;;;;;;;;0.56;100.00;100666.19;5022823;28;19917;-66
2021/01/27 05:04:21;;;;;;;;;;;;;;;0.47;100.00;100658.09;5020285;28;19913;-68
2021/01/27 05:06:49;;;;;;;;;;;;;;;0.37;100.00;100663.69;5019217;28;19939;-67
2021/01/27 05:09:14;;;;;;;;;;;;;;;0.34;100.00;100665.22;5017518;28;19935;-67
2021/01/27 05:11:42;;;;;;;;;;;;;;;0.23;100.00;100651.91;5017195;28;20396;-68
2021/01/27 05:14:08;;;;;;;;;;;;;;;0.16;100.00;100649.94;5026027;28;19916;-67
2021/01/27 05:16:33;;;;;;;;;;;;;;;0.13;100.00;100649.81;5023304;28;19948;-68
2021/01/27 05:19:01;;;;;;;;;;;;;;;0.11;100.00;100639.44;5017803;28;20339;-67
2021/01/27 05:21:31;;;;;;;;;;;;;;;0.12;100.00;100637.72;5029488;28;19948;-67
2021/01/27 05:23:57;;;;;;;;;;;;;;;0.16;100.00;100644.78;5024993;28;19967;-68
2021/01/27 05:26:26;;;;;;;;;;;;;;;0.19;100.00;100634.63;5017211;28;19917;-68
2021/01/27 05:29:01;;;;;;;;;;;;;;;0.17;100.00;100636.25;5027822;28;19928;-67
2021/01/27 05:31:46;;;;;;;;;;;;;;;0.11;100.00;100625.69;5022983;28;20013;-67
2021/01/27 05:34:25;;;;;;;;;;;;;;;0.09;100.00;100629.91;5024008;28;19959;-67
2021/01/27 05:36:50;;;;;;;;;;;;;;;0.11;100.00;100615.41;5024533;28;19935;-67
2021/01/27 05:39:16;;;;;;;;;;;;;;;0.09;100.00;100609.34;5022169;28;20694;-67
2021/01/27 05:41:42;;;;;;;;;;;;;;;0.06;100.00;100611.78;5018829;28;19913;-67
2021/01/27 05:44:12;;;;;;;;;;;;;;;0.07;100.00;100610.97;5030504;28;20066;-67
2021/01/27 05:46:38;;;;;;;;;;;;;;;0.03;100.00;100612.53;5023054;28;19914;-68
2021/01/27 05:49:09;;;;;;;;;;;;;;;0.02;100.00;100610.78;5021058;28;19924;-67
2021/01/27 05:51:36;;;;;;;;;;;;;;;0.00;100.00;100607.28;5019351;28;19956;-68
2021/01/27 05:54:18;;;;;;;;;;;;;;;-0.04;100.00;100606.25;5027872;28;19913;-67
2021/01/27 05:56:43;;;;;;;;;;;;;;;-0.02;100.00;100599.47;5019628;28;20441;-68
2021/01/27 05:59:17;;;;;;;;;;;;;;;-0.03;100.00;100592.59;5022702;28;19917;-67
2021/01/27 06:01:46;;;;;;;;;;;;;;;-0.05;100.00;100589.06;5026795;28;19924;-67
2021/01/27 06:04:11;;;;;;;;;;;;;;;-0.01;100.00;100590.94;5019815;28;20067;-68
2021/01/27 06:06:54;;;;;;;;;;;;;;;-0.03;100.00;100592.59;5029409;28;19956;-67
2021/01/27 06:09:34;;;;;;;;;;;;;;;0.01;100.00;100587.59;5020280;28;20305;-69
2021/01/27 06:12:00;;;;;;;;;;;;;;;0.03;100.00;100573.13;5017483;28;20297;-68
2021/01/27 06:14:26;;;;;;;;;;;;;;;0.05;100.00;100571.47;5017676;28;20369;-67
2021/01/27 06:16:51;;;;;;;;;;;;;;;0.09;100.00;100565.63;5029358;28;19917;-67
2021/01/27 06:19:21;;;;;;;;;;;;;;;0.11;100.00;100557.16;5022193;28;19917;-67
2021/01/27 06:21:52;;;;;;;;;;;;;;;0.13;100.00;100557.25;5016899;28;19959;-68
2021/01/27 06:24:36;;;;;;;;;;;;;;;0.16;100.00;100553.13;5029378;28;19913;-67
2021/01/27 06:27:24;;;;;;;;;;;;;;;0.14;100.00;100548.72;5015440;28;19920;-67
2021/01/27 06:29:56;;;;;;;;;;;;;;;0.11;100.00;100548.59;5028781;28;20096;-67
2021/01/27 06:32:24;;;;;;;;;;;;;;;0.06;100.00;100534.69;5023195;28;20308;-68
2021/01/27 06:34:49;;;;;;;;;;;;;;;0.06;100.00;100534.69;5021780;28;19959;-68
2021/01/27 06:37:20;;;;;;;;;;;;;;;0.02;100.00;100522.53;5017138;28;19913;-67
2021/01/27 06:40:04;;;;;;;;;;;;;;;0.04;100.00;100518.31;5021461;28;19979;-67
2021/01/27 06:42:35;;;;;;;;;;;;;;;0.07;100.00;100503.00;5023535;28;19917;-69
2021/01/27 06:45:05;;;;;;;;;;;;;;;0.08;100.00;100507.34;5018548;28;19967;-67
2021/01/27 06:47:52;;;;;;;;;;;;;;;0.12;100.00;100509.22;5014829;28;20392;-68
2021/01/27 06:50:37;;;;;;;;;;;;;;;0.19;100.00;100500.94;5019662;28;19913;-68
2021/01/27 06:53:27;;;;;;;;;;;;;;;0.23;100.00;100502.81;5024473;28;19944;-67
2021/01/27 06:55:52;;;;;;;;;;;;;;;0.26;100.00;100497.81;5029564;28;20003;-67
2021/01/27 06:58:21;;;;;;;;;;;;;;;0.26;100.00;100503.81;5029636;28;20007;-67
2021/01/27 07:00:58;;;;;;;;;;;;;;;0.28;100.00;100515.03;5011773;28;19980;-67
2021/01/27 07:03:41;;;;;;;;;;;;;;;0.30;100.00;100520.25;5013294;28;19924;-68
2021/01/27 07:06:25;;;;;;;;;;;;;;;0.27;100.00;100520.13;5014714;28;19983;-67
2021/01/27 07:09:02;;;;;;;;;;;;;;;0.32;100.00;100518.59;5013754;28;19920;-68
2021/01/27 07:11:38;;;;;;;;;;;;;;;0.32;100.00;100510.88;5011126;28;19914;-70
2021/01/27 07:14:15;;;;;;;;;;;;;;;0.29;100.00;100515.91;5015748;28;19928;-68
2021/01/27 07:16:47;;;;;;;;;;;;;;;0.24;100.00;100509.69;5027834;28;20003;-68
2021/01/27 07:19:18;;;;;;;;;;;;;;;0.27;100.00;100507.28;5010982;28;19957;-67
2021/01/27 07:21:58;;;;;;;;;;;;;;;0.23;100.00;100515.66;5011146;28;19917;-67
2021/01/27 07:24:24;;;;;;;;;;;;;;;0.22;100.00;100506.19;5020386;28;19963;-68
2021/01/27 07:26:52;;;;;;;;;;;;;;;0.29;100.00;100503.06;5029851;28;19921;-67
2021/01/27 07:29:25;;;;;;;;;;;;;;;0.37;100.00;100509.38;5014400;28;20327;-68
2021/01/27 07:31:58;;;;;;;;;;;;;;;0.44;100.00;100498.50;5012194;28;20000;-68
2021/01/27 07:34:27;;;;;;;;;;;;;;;0.59;100.00;100503.34;5010994;28;21540;-67
2021/01/27 07:36:59;;;;;;;;;;;;;;;0.67;100.00;100503.66;5012876;28;20669;-67
2021/01/27 07:39:29;;;;;;;;;;;;;;;0.75;100.00;100505.72;5010960;28;19971;-68
2021/01/27 07:42:15;;;;;;;;;;;;;;;0.74;100.00;100503.09;5014355;28;19909;-67
2021/01/27 07:44:44;;;;;;;;;;;;;;;0.70;100.00;100501.19;5010693;28;19913;-67
2021/01/27 07:47:28;;;;;;;;;;;;;;;0.69;100.00;100509.72;5012133;28;19917;-68
2021/01/27 07:49:58;;;;;;;;;;;;;;;0.64;100.00;100511.25;5017479;28;19921;-67
2021/01/27 07:52:41;;;;;;;;;;;;;;;0.63;100.00;100515.53;5013181;28;20304;-67
2021/01/27 07:55:07;;;;;;;;;;;;;;;0.63;100.00;100524.94;5015425;28;20007;-68
2021/01/27 07:57:38;;;;;;;;;;;;;;;0.61;100.00;100512.03;5017696;28;19956;-67
2021/01/27 08:00:10;;;;;;;;;;;;;;;0.56;100.00;100516.97;5023013;28;19917;-67
2021/01/27 08:02:41;;;;;;;;;;;;;;;0.54;100.00;100510.91;5018125;28;19913;-68
2021/01/27 08:05:09;;;;;;;;;;;;;;;0.55;100.00;100517.81;5032750;28;19909;-68
2021/01/27 08:07:37;;;;;;;;;;;;;;;0.55;100.00;100517.81;5033283;28;19917;-67
2021/01/27 08:10:06;;;;;;;;;;;;;;;0.57;100.00;100505.88;5022305;28;19916;-67
2021/01/27 08:12:37;;;;;;;;;;;;;;;0.61;100.00;100516.28;5014291;28;19914;-68
2021/01/27 08:15:08;;;;;;;;;;;;;;;0.67;100.00;100516.53;5021261;28;20113;-68
2021/01/27 08:17:36;;;;;;;;;;;;;;;0.74;100.00;100497.94;5027476;28;19921;-67
2021/01/27 08:20:20;;;;;;;;;;;;;;;0.79;100.00;100502.41;5016217;28;19917;-67
2021/01/27 08:22:50;;;;;;;;;;;;;;;0.84;100.00;100505.16;5030746;28;19909;-68
2021/01/27 08:25:34;;;;;;;;;;;;;;;0.82;100.00;100499.06;5032038;28;19913;-67
2021/01/27 08:28:18;;;;;;;;;;;;;;;0.79;100.00;100498.97;5027323;28;19913;-67
2021/01/27 08:31:03;;;;;;;;;;;;;;;0.79;100.00;100493.81;5014151;28;20553;-67
2021/01/27 08:33:38;;;;;;;;;;;;;;;0.73;100.00;100496.19;5031165;28;20438;-68
2021/01/27 08:36:08;;;;;;;;;;;;;;;0.69;100.00;100489.16;5027176;28;19920;-67
2021/01/27 08:38:34;;;;;;;;;;;;;;;0.61;100.00;100490.53;5032821;28;19912;-67
2021/01/27 08:41:00;;;;;;;;;;;;;;;0.55;100.00;100492.06;5032055;28;20312;-68
2021/01/27 08:43:28;;;;;;;;;;;;;;;0.52;100.00;100491.97;5030678;28;19955;-67
2021/01/27 08:45:53;;;;;;;;;;;;;;;0.47;100.00;100478.03;5031880;28;19924;-67
2021/01/27 08:48:50;;;;;;;;;;;;;;;0.41;100.00;100472.69;5023141;28;19909;-68
2021/01/27 08:51:36;;;;;;;;;;;;;;;0.38;100.00;100469.13;5029200;28;19913;-68
2021/01/27 08:54:19;;;;;;;;;;;;;;;0.36;100.00;100475.88;5032188;28;19920;-67
2021/01/27 08:57:03;;;;;;;;;;;;;;;0.33;100.00;100468.91;5031819;28;19913;-67
2021/01/27 08:59:29;;;;;;;;;;;;;;;0.33;100.00;100471.50;5025979;28;19913;-68
2021/01/27 09:01:54;;;;;;;;;;;;;;;0.29;100.00;100469.63;5015968;28;19920;-67
2021/01/27 09:04:32;;;;;;;;;;;;;;;0.26;100.00;100461.81;5012225;28;19910;-67
2021/01/27 09:07:02;;;;;;;;;;;;;;;0.25;100.00;100449.78;5020105;28;19967;-66
2021/01/27 09:09:31;;;;;;;;;;;;;;;0.22;100.00;100447.94;5013490;28;19917;-67
2021/01/27 09:12:06;;;;;;;;;;;;;;;0.22;100.00;100449.63;5014171;28;20296;-67
2021/01/27 09:14:32;;;;;;;;;;;;;;;0.19;100.00;100446.94;5012993;28;20485;-67
2021/01/27 09:16:59;;;;;;;;;;;;;;;0.17;100.00;100453.72;5018179;28;19968;-67
2021/01/27 09:19:28;;;;;;;;;;;;;;;0.10;100.00;100450.03;5025969;28;19924;-67
2021/01/27 09:22:14;;;;;;;;;;;;;;;0.14;100.00;100451.03;5031920;28;20350;-67
2021/01/27 09:24:44;;;;;;;;;;;;;;;0.08;100.00;100443.06;5026514;28;19928;-67
2021/01/27 09:27:30;;;;;;;;;;;;;;;0.09;100.00;100442.25;5031865;28;19909;-67
2021/01/27 09:29:56;;;;;;;;;;;;;;;0.10;100.00;100444.88;5031133;28;19913;-67
2021/01/27 09:32:21;;;;;;;;;;;;;;;0.11;100.00;100448.34;5031338;28;19916;-67
2021/01/27 09:34:49;;;;;;;;;;;;;;;0.12;100.00;100448.41;5016557;28;19975;-67
2021/01/27 09:37:15;;;;;;;;;;;;;;;0.14;100.00;100446.78;5012850;28;19910;-67
2021/01/27 09:39:44;;;;;;;;;;;;;;;0.16;100.00;100450.28;5021387;28;20315;-67
2021/01/27 09:42:16;;;;;;;;;;;;;;;0.21;100.00;100453.03;5012894;28;19916;-67
2021/01/27 09:44:41;;;;;;;;;;;;;;;0.25;100.00;100450.66;5013824;28;19913;-67
2021/01/27 09:47:08;;;;;;;;;;;;;;;0.30;100.00;100443.09;5013785;28;19909;-67
2021/01/27 09:49:39;;;;;;;;;;;;;;;0.39;100.00;100443.47;5017881;28;19997;-68
2021/01/27 09:52:06;;;;;;;;;;;;;;;0.50;100.00;100447.31;5012448;28;19910;-67
2021/01/27 09:54:32;;;;;;;;;;;;;;;0.64;100.00;100446.94;5025559;28;20664;-67
2021/01/27 09:56:59;;;;;;;;;;;;;;;0.74;100.00;100441.31;5030306;28;19913;-67
2021/01/27 09:59:25;;;;;;;;;;;;;;;0.84;100.00;100444.25;5030744;28;19952;-67
2021/01/27 10:01:50;;;;;;;;;;;;;;;0.87;100.00;100448.66;5024368;28;19948;-67
2021/01/27 10:04:33;;;;;;;;;;;;;;;0.97;100.00;100445.59;5021950;28;19976;-67
2021/01/27 10:07:10;;;;;;;;;;;;;;;0.98;100.00;100449.94;5031086;28;19963;-67
2021/01/27 10:09:58;;;;;;;;;;;;;;;0.96;100.00;100438.69;5022696;28;19928;-67
2021/01/27 10:12:28;;;;;;;;;;;;;;;0.95;100.00;100442.06;5013503;28;19949;-67
2021/01/27 10:14:59;;;;;;;;;;;;;;;0.91;100.00;100429.94;5025447;28;20021;-67
2021/01/27 10:17:29;;;;;;;;;;;;;;;0.90;100.00;100429.88;5028460;28;19978;-67
2021/01/27 10:20:03;;;;;;;;;;;;;;;0.83;100.00;100432.22;5012045;28;19920;-66
2021/01/27 10:22:30;;;;;;;;;;;;;;;0.84;100.00;100433.09;5027188;28;19920;-67
2021/01/27 10:24:59;;;;;;;;;;;;;;;0.82;100.00;100429.59;5030357;28;19971;-67
2021/01/27 10:27:31;;;;;;;;;;;;;;;0.74;100.00;100416.47;5030073;28;19908;-67
2021/01/27 10:29:56;;;;;;;;;;;;;;;0.74;100.00;100420.75;5013662;28;19987;-66
2021/01/27 10:32:27;;;;;;;;;;;;;;;0.78;100.00;100408.03;5017781;28;19909;-67
2021/01/27 10:34:53;;;;;;;;;;;;;;;0.88;100.00;100409.22;5011889;28;19913;-67
2021/01/27 10:37:32;;;;;;;;;;;;;;;1.03;100.00;100408.88;5012261;28;19936;-66
2021/01/27 10:40:13;;;;;;;;;;;;;;;1.11;100.00;100405.78;5029112;28;19913;-67
2021/01/27 10:42:39;;;;;;;;;;;;;;;1.28;100.00;100410.59;5029799;28;19917;-68
2021/01/27 10:45:13;;;;;;;;;;;;;;;1.39;100.00;100404.13;5029420;28;20311;-68
2021/01/27 10:47:40;;;;;;;;;;;;;;;1.52;100.00;100400.25;5013108;28;20004;-67
2021/01/27 10:50:07;;;;;;;;;;;;;;;1.53;100.00;100402.88;5018631;28;20476;-67
2021/01/27 10:52:32;;;;;;;;;;;;;;;1.62;100.00;100408.34;5012474;28;19966;-67
2021/01/27 10:55:01;;;;;;;;;;;;;;;1.62;100.00;100413.50;5011309;28;19913;-67
2021/01/27 10:57:26;;;;;;;;;;;;;;;1.55;100.00;100408.94;5011857;28;19916;-67
2021/01/27 10:59:53;;;;;;;;;;;;;;;1.58;100.00;100413.34;5012943;28;20398;-66
2021/01/27 11:02:18;;;;;;;;;;;;;;;1.53;100.00;100410.59;5013436;28;19913;-66
2021/01/27 11:04:44;;;;;;;;;;;;;;;1.58;100.00;100406.50;5015656;28;19920;-66
2021/01/27 11:07:09;;;;;;;;;;;;;;;1.51;100.00;100403.66;5029487;28;20531;-67
2021/01/27 11:09:34;;;;;;;;;;;;;;;1.44;100.00;100407.72;5027929;28;19920;-66
2021/01/27 11:11:59;;;;;;;;;;;;;;;1.42;100.00;100409.38;5011290;28;19909;-67
2021/01/27 11:14:25;;;;;;;;;;;;;;;1.40;100.00;100405.88;5013652;28;20304;-67
2021/01/27 11:16:50;;;;;;;;;;;;;;;1.26;100.00;100401.97;5025115;28;19913;-67
2021/01/27 11:19:15;;;;;;;;;;;;;;;1.23;100.00;100401.88;5011347;28;19928;-67
2021/01/27 11:21:41;;;;;;;;;;;;;;;1.23;100.00;100396.72;5017386;28;19999;-67
2021/01/27 11:24:06;;;;;;;;;;;;;;;1.21;100.00;100401.78;5028170;28;19921;-68
2021/01/27 11:26:32;;;;;;;;;;;;;;;1.18;100.00;100399.09;5010747;28;19916;-68
2021/01/27 11:28:57;;;;;;;;;;;;;;;1.13;100.00;100396.41;5012399;28;19909;-68
2021/01/27 11:31:24;;;;;;;;;;;;;;;1.14;100.00;100397.28;5029633;28;19999;-68
2021/01/27 11:33:49;;;;;;;;;;;;;;;1.04;100.00;100395.19;5029057;28;19909;-68
2021/01/27 11:36:17;;;;;;;;;;;;;;;1.02;100.00;100396.84;5011035;28;19917;-67
2021/01/27 11:38:43;;;;;;;;;;;;;;;1.00;100.00;100389.06;5020860;28;19971;-67
2021/01/27 11:41:08;;;;;;;;;;;;;;;1.05;100.00;100382.38;5012461;28;19925;-67
2021/01/27 11:43:34;;;;;;;;;;;;;;;1.07;100.00;100378.16;5010979;28;19909;-68
2021/01/27 11:45:59;;;;;;;;;;;;;;;0.98;100.00;100392.41;5011206;28;20286;-67
2021/01/27 11:48:24;;;;;;;;;;;;;;;0.94;100.00;100368.25;5013924;28;20004;-67
2021/01/27 11:50:50;;;;;;;;;;;;;;;0.95;100.00;100372.56;5013121;28;19940;-67
2021/01/27 11:53:15;;;;;;;;;;;;;;;0.96;100.00;100365.72;5010930;28;20051;-67
2021/01/27 11:55:40;;;;;;;;;;;;;;;1.00;100.00;100362.47;5021441;28;19913;-67
2021/01/27 11:58:05;;;;;;;;;;;;;;;1.01;100.00;100353.91;5010923;28;19909;-66
2021/01/27 12:00:31;;;;;;;;;;;;;;;1.11;100.00;100346.56;5010983;28;19972;-66
2021/01/27 12:02:57;;;;;;;;;;;;;;;1.27;100.00;100336.75;5010762;28;19949;-66
2021/01/27 12:05:22;;;;;;;;;;;;;;;1.33;100.00;100337.84;5011005;28;20392;-67
2021/01/27 12:07:48;;;;;;;;;;;;;;;1.34;100.00;100338.72;5010737;28;19910;-66
2021/01/27 12:10:13;;;;;;;;;;;;;;;1.32;100.00;100335.19;5012944;28;20463;-67
2021/01/27 12:12:38;;;;;;;;;;;;;;;1.35;100.00;100340.47;5014345;28;19909;-66
2021/01/27 12:15:04;;;;;;;;;;;;;;;1.28;100.00;100323.03;5029023;28;19913;-66
2021/01/27 12:17:30;;;;;;;;;;;;;;;1.32;100.00;100314.59;5023413;28;19913;-67
2021/01/27 12:19:55;;;;;;;;;;;;;;;1.30;100.00;100308.50;5013483;28;20325;-66
2021/01/27 12:22:20;;;;;;;;;;;;;;;1.31;100.00;100313.72;5010205;28;19914;-67
2021/01/27 12:24:45;;;;;;;;;;;;;;;1.36;100.00;100308.72;5013323;28;19912;-67
2021/01/27 12:27:11;;;;;;;;;;;;;;;1.37;100.00;100311.34;5028856;28;20004;-67
2021/01/27 12:29:36;;;;;;;;;;;;;;;1.36;100.00;100303.56;5028640;28;19909;-67